createdAt,value
2023-05-16T00:00:35.333Z,7.55
2023-05-16T00:03:21.488Z,7.51
2023-05-16T00:06:07.216Z,7.43
2023-05-16T00:08:53.046Z,7.40
2023-05-16T00:11:38.446Z,7.39
2023-05-16T00:14:26.376Z,7.33
2023-05-16T00:17:12.347Z,7.27
2023-05-16T00:20:00.727Z,7.22
2023-05-16T00:22:46.362Z,7.25
2023-05-16T00:25:31.709Z,7.25
2023-05-16T00:28:17.264Z,7.23
2023-05-16T00:31:03.048Z,7.21
2023-05-16T00:33:48.490Z,7.22
2023-05-16T00:36:35.883Z,7.16
2023-05-16T00:39:21.352Z,7.05
2023-05-16T00:42:07.094Z,6.99
2023-05-16T00:44:52.444Z,6.93
2023-05-16T00:47:38.091Z,6.91
2023-05-16T00:50:24.639Z,6.88
2023-05-16T00:53:10.544Z,6.82
2023-05-16T00:55:57.179Z,6.75
2023-05-16T00:58:42.728Z,6.71
2023-05-16T01:01:28.796Z,6.68
2023-05-16T01:04:14.612Z,6.64
2023-05-16T01:07:01.501Z,6.62
2023-05-16T01:09:46.867Z,6.60
2023-05-16T01:12:53.612Z,6.58
2023-05-16T01:15:56.714Z,6.53
2023-05-16T01:18:56.300Z,6.52
2023-05-16T01:22:02.923Z,6.46
2023-05-16T01:25:10.455Z,6.44
2023-05-16T01:27:58.628Z,6.39
2023-05-16T01:30:45.046Z,6.36
2023-05-16T01:33:32.197Z,6.31
2023-05-16T01:36:24.823Z,6.21
2023-05-16T01:39:20.082Z,6.14
2023-05-16T01:42:14.540Z,6.08
2023-05-16T01:45:18.194Z,6.02
2023-05-16T01:48:10.973Z,5.96
2023-05-16T01:50:58.004Z,5.88
2023-05-16T01:53:45.460Z,5.78
2023-05-16T01:56:32.670Z,5.70
2023-05-16T01:59:21.316Z,5.64
2023-05-16T02:02:07.040Z,5.56
2023-05-16T02:04:52.526Z,5.49
2023-05-16T02:07:38.565Z,5.47
2023-05-16T02:10:24.418Z,5.42
2023-05-16T02:13:10.089Z,5.42
2023-05-16T02:15:55.524Z,5.41
2023-05-16T02:18:41.482Z,5.40
2023-05-16T02:21:27.234Z,5.39
2023-05-16T02:24:12.791Z,5.37
2023-05-16T02:26:58.357Z,5.34
2023-05-16T02:29:43.749Z,5.29
2023-05-16T02:32:29.058Z,5.27
2023-05-16T02:35:14.754Z,5.22
2023-05-16T02:38:00.374Z,5.19
2023-05-16T02:40:46.215Z,5.13
2023-05-16T02:43:32.088Z,5.10
2023-05-16T02:46:30.716Z,5.07
2023-05-16T02:49:17.112Z,5.08
2023-05-16T02:52:03.659Z,5.04
2023-05-16T02:55:09.204Z,5.04
2023-05-16T02:57:55.676Z,5.03
2023-05-16T03:00:40.929Z,4.97
2023-05-16T03:03:28.036Z,4.93
2023-05-16T03:06:13.439Z,4.87
2023-05-16T03:08:58.791Z,4.84
2023-05-16T03:11:45.212Z,4.81
2023-05-16T03:14:30.610Z,4.80
2023-05-16T03:17:16.222Z,4.77
2023-05-16T03:20:01.683Z,4.73
2023-05-16T03:22:47.109Z,4.70
2023-05-16T03:25:32.538Z,4.65
2023-05-16T03:28:18.448Z,4.60
2023-05-16T03:31:04.057Z,4.56
2023-05-16T03:33:49.361Z,4.51
2023-05-16T03:36:36.014Z,4.50
2023-05-16T03:39:21.936Z,4.49
2023-05-16T03:42:07.765Z,4.47
2023-05-16T03:44:53.171Z,4.46
2023-05-16T03:47:38.680Z,4.43
2023-05-16T03:50:24.035Z,4.39
2023-05-16T03:53:10.009Z,4.35
2023-05-16T03:55:55.483Z,4.33
2023-05-16T03:58:41.121Z,4.32
2023-05-16T04:01:26.814Z,4.29
2023-05-16T04:04:12.550Z,4.27
2023-05-16T04:06:58.323Z,4.24
2023-05-16T04:09:43.800Z,4.21
2023-05-16T04:12:29.146Z,4.16
2023-05-16T04:15:14.558Z,4.16
2023-05-16T04:17:59.910Z,4.13
2023-05-16T04:20:47.669Z,4.12
2023-05-16T04:23:33.095Z,4.11
2023-05-16T04:26:18.706Z,4.11
2023-05-16T04:29:04.448Z,4.07
2023-05-16T04:31:50.093Z,4.05
2023-05-16T04:34:39.798Z,4.04
2023-05-16T04:37:25.691Z,4.02
2023-05-16T04:40:13.096Z,4.02
2023-05-16T04:42:58.239Z,4.05
2023-05-16T04:45:43.629Z,4.07
2023-05-16T04:48:29.049Z,4.09
2023-05-16T04:51:14.645Z,4.13
2023-05-16T04:54:01.090Z,4.16
2023-05-16T04:56:46.656Z,4.18
2023-05-16T04:59:32.132Z,4.22
2023-05-16T05:02:17.851Z,4.26
2023-05-16T05:05:03.753Z,4.29
2023-05-16T05:07:49.379Z,4.32
2023-05-16T05:10:34.803Z,4.36
2023-05-16T05:13:20.172Z,4.39
2023-05-16T05:16:06.127Z,4.46
2023-05-16T05:18:51.774Z,4.50
2023-05-16T05:21:37.815Z,4.56
2023-05-16T05:24:23.299Z,4.65
2023-05-16T05:27:08.740Z,4.72
2023-05-16T05:29:54.050Z,4.78
2023-05-16T05:32:39.534Z,4.85
2023-05-16T05:35:25.018Z,4.91
2023-05-16T05:38:10.462Z,5.00
2023-05-16T05:40:55.975Z,5.06
2023-05-16T05:43:41.454Z,5.14
2023-05-16T05:46:27.137Z,5.19
2023-05-16T05:49:13.131Z,5.28
2023-05-16T05:51:58.484Z,5.35
2023-05-16T05:54:44.103Z,5.42
2023-05-16T05:57:29.874Z,5.48
2023-05-16T06:00:15.599Z,5.54
2023-05-16T06:03:01.393Z,5.62
2023-05-16T06:05:46.754Z,5.67
2023-05-16T06:08:32.066Z,5.72
2023-05-16T06:11:17.231Z,5.82
2023-05-16T06:14:02.811Z,5.85
2023-05-16T06:16:48.333Z,5.93
2023-05-16T06:19:33.798Z,5.98
2023-05-16T06:22:19.332Z,6.06
2023-05-16T06:25:04.867Z,6.12
2023-05-16T06:27:50.804Z,6.20
2023-05-16T06:30:36.475Z,6.26
2023-05-16T06:33:21.834Z,6.32
2023-05-16T06:36:07.636Z,6.40
2023-05-16T06:38:53.429Z,6.48
2023-05-16T06:41:38.897Z,6.59
2023-05-16T06:44:24.843Z,6.66
2023-05-16T06:47:10.129Z,6.74
2023-05-16T06:49:55.849Z,6.81
2023-05-16T06:52:42.297Z,6.92
2023-05-16T06:55:28.120Z,7.00
2023-05-16T06:58:14.130Z,7.11
2023-05-16T07:00:59.800Z,7.26
2023-05-16T07:03:45.374Z,7.40
2023-05-16T07:06:31.238Z,7.56
2023-05-16T07:09:16.566Z,7.63
2023-05-16T07:12:02.033Z,7.72
2023-05-16T07:14:47.897Z,7.81
2023-05-16T07:17:33.618Z,7.93
2023-05-16T07:20:18.901Z,7.97
2023-05-16T07:23:04.338Z,8.09
2023-05-16T07:25:50.153Z,8.18
2023-05-16T07:28:38.005Z,8.23
2023-05-16T07:31:24.386Z,8.33
2023-05-16T07:34:11.209Z,8.42
2023-05-16T07:36:56.728Z,8.49
2023-05-16T07:39:42.863Z,8.57
2023-05-16T07:42:28.596Z,8.68
2023-05-16T07:45:13.975Z,8.77
2023-05-16T07:48:00.470Z,8.81
2023-05-16T07:50:46.137Z,8.88
2023-05-16T07:53:31.548Z,8.96
2023-05-16T07:56:17.049Z,9.05
2023-05-16T07:59:03.245Z,9.13
2023-05-16T08:01:48.758Z,9.21
2023-05-16T08:04:34.286Z,9.31
2023-05-16T08:07:19.556Z,9.41
2023-05-16T08:10:05.566Z,9.52
2023-05-16T08:12:51.233Z,9.61
2023-05-16T08:15:37.189Z,9.74
2023-05-16T08:18:22.882Z,9.85
2023-05-16T08:21:11.951Z,9.94
2023-05-16T08:23:57.919Z,10.04
2023-05-16T08:26:43.286Z,10.18
2023-05-16T08:29:28.736Z,10.36
2023-05-16T08:32:14.010Z,10.46
2023-05-16T08:35:00.473Z,10.59
2023-05-16T08:37:46.156Z,10.65
2023-05-16T08:40:31.742Z,10.77
2023-05-16T08:43:17.256Z,10.86
2023-05-16T08:46:02.863Z,10.92
2023-05-16T08:48:52.793Z,10.95
2023-05-16T08:51:38.815Z,11.04
2023-05-16T08:54:26.233Z,11.07
2023-05-16T08:57:14.675Z,11.17
2023-05-16T09:00:00.263Z,11.23
2023-05-16T09:02:46.363Z,11.34
2023-05-16T09:05:33.149Z,11.40
2023-05-16T09:08:18.626Z,11.47
2023-05-16T09:11:04.295Z,11.54
2023-05-16T09:13:50.158Z,11.54
2023-05-16T09:16:35.794Z,11.61
2023-05-16T09:19:23.570Z,11.64
2023-05-16T09:22:11.646Z,11.75
2023-05-16T09:25:00.581Z,11.89
2023-05-16T09:27:52.626Z,12.00
2023-05-16T09:30:39.644Z,11.93
2023-05-16T09:33:28.253Z,11.97
2023-05-16T09:36:14.764Z,12.11
2023-05-16T09:39:01.872Z,12.10
2023-05-16T09:41:52.509Z,12.25
2023-05-16T09:44:38.404Z,12.43
2023-05-16T09:47:24.066Z,12.49
2023-05-16T09:50:09.803Z,12.40
2023-05-16T09:52:56.956Z,12.28
2023-05-16T09:55:42.391Z,12.20
2023-05-16T09:58:38.717Z,12.22
2023-05-16T10:01:24.994Z,12.32
2023-05-16T10:04:14.399Z,12.55
2023-05-16T10:07:05.558Z,12.68
2023-05-16T10:09:52.845Z,12.85
2023-05-16T10:12:38.950Z,12.99
2023-05-16T10:15:25.146Z,12.99
2023-05-16T10:18:13.540Z,13.14
2023-05-16T10:21:11.810Z,13.26
2023-05-16T10:24:02.961Z,13.33
2023-05-16T10:26:49.626Z,13.51
2023-05-16T10:29:46.427Z,13.79
2023-05-16T10:32:43.081Z,13.87
2023-05-16T10:35:29.105Z,13.79
2023-05-16T10:38:20.034Z,13.69
2023-05-16T10:41:07.218Z,13.80
2023-05-16T10:43:59.649Z,13.93
2023-05-16T10:46:47.553Z,13.99
2023-05-16T10:49:33.410Z,13.88
2023-05-16T10:52:19.020Z,13.92
2023-05-16T10:55:07.170Z,13.92
2023-05-16T10:57:52.707Z,14.01
2023-05-16T11:00:40.092Z,13.99
2023-05-16T11:03:28.729Z,14.11
2023-05-16T11:06:21.413Z,14.13
2023-05-16T11:09:08.245Z,13.97
2023-05-16T11:11:53.814Z,13.79
2023-05-16T11:14:47.731Z,13.94
2023-05-16T11:17:41.125Z,14.10
2023-05-16T11:20:31.973Z,14.19
2023-05-16T11:23:17.631Z,14.22
2023-05-16T11:26:03.510Z,14.01
2023-05-16T11:28:52.711Z,13.81
2023-05-16T11:31:38.499Z,13.80
2023-05-16T11:34:23.847Z,14.15
2023-05-16T11:37:12.096Z,14.66
2023-05-16T11:40:02.308Z,14.82
2023-05-16T11:42:48.482Z,14.86
2023-05-16T11:45:34.821Z,14.71
2023-05-16T11:48:32.485Z,14.64
2023-05-16T11:51:21.568Z,14.99
2023-05-16T11:54:09.630Z,15.03
2023-05-16T11:56:55.589Z,14.90
2023-05-16T11:59:41.570Z,14.91
2023-05-16T12:02:29.883Z,14.87
2023-05-16T12:05:17.298Z,14.96
2023-05-16T12:08:04.878Z,15.19
2023-05-16T12:10:56.156Z,15.25
2023-05-16T12:13:41.848Z,15.21
2023-05-16T12:16:27.598Z,15.08
2023-05-16T12:19:14.230Z,14.96
2023-05-16T12:22:00.119Z,14.85
2023-05-16T12:24:45.997Z,14.78
2023-05-16T12:27:33.018Z,14.64
2023-05-16T12:30:19.168Z,14.76
2023-05-16T12:33:13.061Z,15.16
2023-05-16T12:35:59.600Z,15.65
2023-05-16T12:38:47.731Z,16.21
2023-05-16T12:41:33.185Z,16.02
2023-05-16T12:44:20.098Z,16.46
2023-05-16T12:47:12.439Z,17.09
2023-05-16T12:49:57.725Z,17.26
2023-05-16T12:53:00.045Z,17.09
2023-05-16T12:55:46.111Z,17.31
2023-05-16T12:58:31.915Z,17.35
2023-05-16T13:01:17.363Z,16.91
2023-05-16T13:04:04.684Z,16.54
2023-05-16T13:09:38.953Z,16.88
2023-05-16T13:12:27.096Z,16.63
2023-05-16T13:15:12.845Z,16.73
2023-05-16T13:17:58.346Z,17.08
2023-05-16T13:20:44.559Z,17.66
2023-05-16T13:23:30.762Z,18.13
2023-05-16T13:26:16.367Z,17.95
2023-05-16T13:29:02.382Z,17.59
2023-05-16T13:31:48.190Z,17.08
2023-05-16T13:34:34.109Z,16.63
2023-05-16T13:37:22.496Z,16.63
2023-05-16T13:40:11.326Z,16.67
2023-05-16T13:42:57.609Z,16.61
2023-05-16T13:45:44.272Z,16.58
2023-05-16T13:48:29.853Z,16.62
2023-05-16T13:51:15.597Z,16.61
2023-05-16T13:54:01.079Z,16.73
2023-05-16T13:56:46.816Z,17.03
2023-05-16T13:59:56.749Z,17.11
2023-05-16T14:02:37.422Z,16.79
2023-05-16T14:05:23.093Z,16.79
2023-05-16T14:08:08.929Z,16.75
2023-05-16T14:10:54.351Z,16.87
2023-05-16T14:13:42.482Z,17.10
2023-05-16T14:16:29.512Z,17.17
2023-05-16T14:19:16.702Z,17.04
2023-05-16T14:22:03.224Z,17.17
2023-05-16T14:24:48.801Z,17.33
2023-05-16T14:27:34.201Z,17.44
2023-05-16T14:30:19.514Z,18.22
2023-05-16T14:33:06.242Z,18.49
2023-05-16T14:35:52.541Z,18.87
2023-05-16T14:38:38.254Z,18.84
2023-05-16T14:41:23.746Z,18.17
2023-05-16T14:44:09.927Z,18.03
2023-05-16T14:46:55.522Z,17.84
2023-05-16T14:49:41.679Z,18.22
2023-05-16T14:52:26.985Z,18.35
2023-05-16T14:55:12.669Z,18.33
2023-05-16T14:57:59.973Z,18.14
2023-05-16T15:00:46.325Z,17.75
2023-05-16T15:03:43.299Z,17.59
2023-05-16T15:06:36.664Z,17.59
2023-05-16T15:09:22.464Z,17.46
2023-05-16T15:12:08.455Z,17.28
2023-05-16T15:14:54.034Z,16.96
2023-05-16T15:17:41.974Z,16.84
2023-05-16T15:20:28.262Z,16.73
2023-05-16T15:23:14.054Z,16.76
2023-05-16T15:25:59.478Z,16.86
2023-05-16T15:28:44.887Z,16.82
2023-05-16T15:31:32.313Z,16.61
2023-05-16T15:34:18.106Z,16.62
2023-05-16T15:37:03.985Z,16.60
2023-05-16T15:39:49.438Z,16.56
2023-05-16T15:42:35.504Z,16.70
2023-05-16T15:45:21.276Z,16.85
2023-05-16T15:48:07.218Z,16.93
2023-05-16T15:50:53.207Z,16.94
2023-05-16T15:53:38.847Z,16.83
2023-05-16T15:56:24.371Z,16.58
2023-05-16T15:59:09.793Z,16.42
2023-05-16T16:01:55.645Z,16.27
2023-05-16T16:04:41.194Z,16.27
2023-05-16T16:07:26.914Z,16.24
2023-05-16T16:10:12.650Z,16.20
2023-05-16T16:13:00.232Z,16.20
2023-05-16T16:15:45.953Z,16.48
2023-05-16T16:18:31.376Z,16.59
2023-05-16T16:21:16.882Z,16.61
2023-05-16T16:24:02.419Z,16.58
2023-05-16T16:26:47.667Z,16.44
2023-05-16T16:29:33.166Z,16.29
2023-05-16T16:32:18.400Z,16.21
2023-05-16T16:35:05.513Z,16.42
2023-05-16T16:38:05.643Z,17.03
2023-05-16T16:40:52.384Z,17.54
2023-05-16T16:43:40.870Z,17.74
2023-05-16T16:46:27.148Z,18.13
2023-05-16T16:49:12.740Z,18.20
2023-05-16T16:51:58.636Z,17.78
2023-05-16T16:54:43.940Z,17.33
2023-05-16T16:57:29.334Z,16.92
2023-05-16T17:00:15.402Z,17.01
2023-05-16T17:03:01.020Z,17.46
2023-05-16T17:05:46.867Z,17.79
2023-05-16T17:08:32.133Z,18.20
2023-05-16T17:11:22.914Z,18.29
2023-05-16T17:14:10.798Z,18.57
2023-05-16T17:16:56.844Z,19.06
2023-05-16T17:19:43.187Z,19.11
2023-05-16T17:22:28.553Z,19.06
2023-05-16T17:25:13.967Z,19.24
2023-05-16T17:27:59.708Z,19.24
2023-05-16T17:30:45.646Z,18.87
2023-05-16T17:33:31.296Z,18.95
2023-05-16T17:36:17.065Z,18.88
2023-05-16T17:39:02.379Z,18.72
2023-05-16T17:41:48.103Z,18.62
2023-05-16T17:44:33.562Z,18.28
2023-05-16T17:47:19.811Z,17.97
2023-05-16T17:50:08.719Z,17.59
2023-05-16T17:52:55.070Z,17.21
2023-05-16T17:55:40.402Z,16.94
2023-05-16T17:58:25.758Z,16.69
2023-05-16T18:01:13.078Z,16.44
2023-05-16T18:03:58.934Z,16.15
2023-05-16T18:06:46.156Z,16.08
2023-05-16T18:09:31.907Z,15.98
2023-05-16T18:12:17.350Z,15.93
2023-05-16T18:15:04.051Z,15.83
2023-05-16T18:17:49.683Z,15.72
2023-05-16T18:20:35.664Z,15.65
2023-05-16T18:23:21.560Z,15.63
2023-05-16T18:26:06.987Z,15.59
2023-05-16T18:28:52.239Z,15.54
2023-05-16T18:31:41.352Z,15.54
2023-05-16T18:34:26.667Z,15.44
2023-05-16T18:37:12.185Z,15.36
2023-05-16T18:39:57.879Z,15.29
2023-05-16T18:42:43.205Z,15.21
2023-05-16T18:45:30.207Z,15.16
2023-05-16T18:48:15.947Z,15.10
2023-05-16T18:51:01.789Z,15.10
2023-05-16T18:53:47.389Z,15.10
2023-05-16T18:56:32.808Z,15.05
2023-05-16T18:59:18.901Z,14.96
2023-05-16T19:02:04.683Z,14.90
2023-05-16T19:04:50.497Z,14.79
2023-05-16T19:07:38.569Z,14.71
2023-05-16T19:10:25.262Z,14.69
2023-05-16T19:13:11.120Z,14.63
2023-05-16T19:15:56.533Z,14.62
2023-05-16T19:18:42.188Z,14.58
2023-05-16T19:21:27.839Z,14.57
2023-05-16T19:24:13.419Z,14.58
2023-05-16T19:26:58.957Z,14.58
2023-05-16T19:29:44.782Z,14.55
2023-05-16T19:32:30.467Z,14.51
2023-05-16T19:35:16.024Z,14.47
2023-05-16T19:38:01.370Z,14.36
2023-05-16T19:40:47.118Z,14.23
2023-05-16T19:43:33.885Z,14.11
2023-05-16T19:46:19.403Z,14.02
2023-05-16T19:49:06.651Z,13.96
2023-05-16T19:51:52.146Z,13.90
2023-05-16T19:54:37.578Z,13.84
2023-05-16T19:57:22.948Z,13.73
2023-05-16T20:00:09.657Z,13.64
2023-05-16T20:03:01.215Z,13.55
2023-05-16T20:05:46.891Z,13.47
2023-05-16T20:08:32.363Z,13.43
2023-05-16T20:11:19.166Z,13.41
2023-05-16T20:14:04.800Z,13.36
2023-05-16T20:16:51.495Z,13.32
2023-05-16T20:19:37.643Z,13.27
2023-05-16T20:22:23.592Z,13.24
2023-05-16T20:25:13.168Z,13.19
2023-05-16T20:28:01.055Z,13.13
2023-05-16T20:30:46.584Z,13.08
2023-05-16T20:33:32.075Z,13.06
2023-05-16T20:36:17.691Z,13.03
2023-05-16T20:39:03.957Z,13.01
2023-05-16T20:41:49.503Z,12.95
2023-05-16T20:44:34.787Z,12.84
2023-05-16T20:47:20.454Z,12.75
2023-05-16T20:50:06.662Z,12.64
2023-05-16T20:52:52.197Z,12.53
2023-05-16T20:55:37.591Z,12.43
2023-05-16T20:58:23.167Z,12.38
2023-05-16T21:01:09.156Z,12.26
2023-05-16T21:03:54.327Z,12.13
2023-05-16T21:06:39.777Z,12.05
2023-05-16T21:09:25.023Z,11.97
2023-05-16T21:12:10.442Z,11.83
2023-05-16T21:14:56.226Z,11.65
2023-05-16T21:17:42.314Z,11.48
2023-05-16T21:20:30.173Z,11.28
2023-05-16T21:23:18.219Z,11.10
2023-05-16T21:26:03.512Z,10.94
2023-05-16T21:28:55.170Z,10.80
2023-05-16T21:31:41.820Z,10.66
2023-05-16T21:34:27.394Z,10.58
2023-05-16T21:37:12.902Z,10.54
2023-05-16T21:39:58.429Z,10.46
2023-05-16T21:42:44.084Z,10.36
2023-05-16T21:45:29.886Z,10.24
2023-05-16T21:48:15.698Z,10.10
2023-05-16T21:51:01.912Z,9.98
2023-05-16T21:53:47.255Z,9.88
2023-05-16T21:56:32.507Z,9.90
2023-05-16T21:59:17.867Z,9.95
2023-05-16T22:02:03.345Z,10.01
2023-05-16T22:04:53.491Z,10.01
2023-05-16T22:07:38.944Z,9.97
2023-05-16T22:10:24.328Z,9.83
2023-05-16T22:13:09.796Z,9.68
2023-05-16T22:16:04.040Z,9.55
2023-05-16T22:18:50.835Z,9.43
2023-05-16T22:21:36.596Z,9.30
2023-05-16T22:24:22.365Z,9.16
2023-05-16T22:27:07.905Z,9.05
2023-05-16T22:29:53.398Z,8.95
2023-05-16T22:32:39.000Z,8.85
2023-05-16T22:35:31.669Z,8.77
2023-05-16T22:38:17.370Z,8.71
2023-05-16T22:41:02.661Z,8.59
2023-05-16T22:43:48.001Z,8.49
2023-05-16T22:46:33.222Z,8.37
2023-05-16T22:49:19.105Z,8.30
2023-05-16T22:52:04.789Z,8.24
2023-05-16T22:54:50.297Z,8.23
2023-05-16T22:57:36.070Z,8.26
2023-05-16T23:00:23.650Z,8.35
2023-05-16T23:03:08.880Z,8.42
2023-05-16T23:05:55.793Z,8.39
2023-05-16T23:08:42.419Z,8.32
2023-05-16T23:11:27.625Z,8.22
2023-05-16T23:14:13.182Z,8.15
2023-05-16T23:16:58.457Z,8.05
2023-05-16T23:19:43.790Z,8.00
2023-05-16T23:22:29.529Z,7.94
2023-05-16T23:25:14.853Z,7.90
2023-05-16T23:28:00.315Z,7.83
2023-05-16T23:30:45.771Z,7.79
2023-05-16T23:33:31.562Z,7.76
2023-05-16T23:36:16.803Z,7.87
2023-05-16T23:39:02.431Z,7.95
2023-05-16T23:41:50.079Z,7.88
2023-05-16T23:44:35.499Z,7.82
2023-05-16T23:47:20.907Z,7.85
2023-05-16T23:50:07.189Z,7.95
2023-05-16T23:52:52.962Z,7.99
2023-05-16T23:55:38.442Z,8.03
2023-05-16T23:58:23.748Z,7.98
